Time;durP1;ratioP1;P1;durP2;ratioP2;P2;SDS_P1;SDS_P2;PMS_P1;PMS_P2;Temp;Humidity;BMP_temperature;BMP_pressure;BME280_temperature;BME280_humidity;BME280_pressure;Samples;Min_cycle;Max_cycle;Signal;HPM_P1;HPM_P2
2021/09/01 00:01:00;;;;;;;0.20;0.20;;;;;;;6.52;58.19;98546.22;6245453;23;20014;-61
2021/09/01 00:03:26;;;;;;;0.20;0.20;;;;;;;6.52;58.21;98546.22;6245573;23;20014;-61
2021/09/01 00:05:51;;;;;;;0.20;0.20;;;;;;;6.48;58.28;98543.09;6245353;23;20007;-61
2021/09/01 00:08:17;;;;;;;0.20;0.20;;;;;;;6.46;58.41;98554.22;6245384;23;20012;-62
2021/09/01 00:10:43;;;;;;;0.20;0.20;;;;;;;6.47;58.41;98552.31;6218458;23;20464;-62
2021/09/01 00:13:09;;;;;;;0.47;0.47;;;;;;;6.46;58.55;98562.41;6245459;23;20008;-62
2021/09/01 00:15:35;;;;;;;0.20;0.20;;;;;;;6.44;58.46;98566.38;6245683;23;20385;-62
2021/09/01 00:18:01;;;;;;;0.20;0.20;;;;;;;6.43;58.63;98561.97;6245261;23;20040;-62
2021/09/01 00:20:27;;;;;;;0.20;0.20;;;;;;;6.40;59.02;98562.41;6245120;23;20012;-62
2021/09/01 00:22:56;;;;;;;0.38;0.30;;;;;;;6.35;58.90;98557.59;6245503;23;20448;-62
2021/09/01 00:25:22;;;;;;;0.90;0.38;;;;;;;6.31;58.97;98562.63;6245059;23;20023;-62
2021/09/01 00:27:48;;;;;;;0.60;0.60;;;;;;;6.25;59.25;98551.75;6245147;23;20020;-62
2021/09/01 00:30:14;;;;;;;0.20;0.20;;;;;;;6.19;59.32;98567.06;6244797;23;20008;-62
2021/09/01 00:32:40;;;;;;;0.20;0.20;;;;;;;6.11;59.51;98564.53;6245101;23;20031;-62
2021/09/01 00:35:06;;;;;;;0.20;0.20;;;;;;;6.05;59.74;98558.09;6245008;23;20341;-62
2021/09/01 00:37:32;;;;;;;0.20;0.20;;;;;;;6.05;59.65;98559.94;6245346;23;20019;-62
2021/09/01 00:39:58;;;;;;;0.10;0.10;;;;;;;6.04;59.78;98566.47;6245248;22;20085;-61
2021/09/01 00:42:24;;;;;;;0.63;0.63;;;;;;;6.03;59.77;98572.97;6245105;23;20074;-62
2021/09/01 00:44:49;;;;;;;0.30;0.30;;;;;;;6.01;59.72;98573.19;6244856;23;20023;-62
2021/09/01 00:47:21;;;;;;;1.88;0.55;;;;;;;5.98;59.79;98568.16;6245097;23;20087;-61
2021/09/01 00:49:47;;;;;;;0.30;0.30;;;;;;;5.94;59.87;98573.13;6244748;23;20012;-62
2021/09/01 00:52:14;;;;;;;0.30;0.30;;;;;;;5.91;60.08;98565.38;6244929;23;20012;-61
2021/09/01 00:54:40;;;;;;;0.20;0.20;;;;;;;5.92;60.07;98560.78;6244796;23;20012;-62
2021/09/01 00:57:07;;;;;;;0.30;0.30;;;;;;;5.94;59.98;98567.69;6244877;23;20330;-61
2021/09/01 00:59:37;;;;;;;0.20;0.20;;;;;;;6.00;59.86;98567.94;6244296;23;20023;-62
2021/09/01 01:02:03;;;;;;;0.20;0.20;;;;;;;6.07;59.78;98561.41;6245041;23;20137;-62
2021/09/01 01:04:33;;;;;;;0.50;0.50;;;;;;;6.20;59.47;98559.72;6244492;23;20106;-61
2021/09/01 01:07:06;;;;;;;0.20;0.20;;;;;;;6.34;59.05;98553.19;6244911;23;20115;-61
2021/09/01 01:09:34;;;;;;;0.15;0.15;;;;;;;6.41;58.92;98558.63;6244971;23;20012;-61
2021/09/01 01:12:02;;;;;;;0.32;0.32;;;;;;;6.45;58.83;98566.16;6244618;23;20360;-62
2021/09/01 01:14:28;;;;;;;0.40;0.40;;;;;;;6.51;58.83;98564.47;6245367;23;20023;-62
2021/09/01 01:16:55;;;;;;;0.20;0.20;;;;;;;6.54;58.93;98555.84;6244608;23;20095;-62
2021/09/01 01:19:21;;;;;;;0.20;0.20;;;;;;;6.56;58.90;98564.66;6244341;23;20012;-62
2021/09/01 01:21:47;;;;;;;0.30;0.30;;;;;;;6.56;58.91;98570.09;6244724;23;20008;-62
2021/09/01 01:24:13;;;;;;;0.35;0.35;;;;;;;6.57;58.98;98571.78;6244580;23;20012;-61
2021/09/01 01:26:38;;;;;;;1.25;1.20;;;;;;;6.59;59.00;98563.41;6244639;23;20441;-62
2021/09/01 01:29:08;;;;;;;0.50;0.50;;;;;;;6.62;59.04;98563.78;6244395;23;20008;-63
2021/09/01 01:31:37;;;;;;;0.20;0.20;;;;;;;6.65;59.01;98563.38;6244650;23;20024;-64
2021/09/01 01:34:03;;;;;;;0.85;0.80;;;;;;;6.71;58.95;98567.13;6217699;23;20008;-63
2021/09/01 01:36:29;;;;;;;0.30;0.30;;;;;;;6.80;58.81;98568.56;6244796;23;20008;-63
2021/09/01 01:38:55;;;;;;;0.60;0.60;;;;;;;6.91;58.54;98563.47;6244493;23;20039;-62
2021/09/01 01:41:20;;;;;;;0.50;0.50;;;;;;;7.01;58.46;98561.13;6244704;23;20448;-62
2021/09/01 01:43:48;;;;;;;0.77;0.77;;;;;;;7.13;58.28;98561.28;6244337;23;20040;-62
2021/09/01 01:46:14;;;;;;;0.30;0.30;;;;;;;7.22;58.14;98564.59;6244426;23;20452;-61
2021/09/01 01:48:40;;;;;;;0.60;0.57;;;;;;;7.26;58.11;98566.66;6244443;23;20012;-61
2021/09/01 01:51:06;;;;;;;0.95;0.95;;;;;;;7.27;58.24;98557.38;6244543;23;20078;-61
2021/09/01 01:53:32;;;;;;;0.20;0.20;;;;;;;7.30;58.25;98558.84;6218777;23;20015;-61
2021/09/01 02:00:01;;;;;;;0.40;0.40;;;;;;;7.43;58.28;98556.03;6243701;23;20047;-59
2021/09/01 02:03:06;;;;;;;0.50;0.50;;;;;;;7.53;58.05;98566.47;6242837;23;20356;-60
2021/09/01 02:06:12;;;;;;;0.30;0.30;;;;;;;8.02;57.17;98562.09;6246343;23;20038;-59
2021/09/01 02:09:17;;;;;;;0.38;0.38;;;;;;;10.57;51.46;98556.63;6245834;23;20008;-61
2021/09/01 02:15:47;;;;;;;0.22;0.22;;;;;;;14.93;44.44;98553.53;6243933;23;20391;-63
2021/09/01 02:18:32;;;;;;;;;;;;;;;16.28;42.39;98548.84;6246820;23;20330;-63
2021/09/01 02:28:23;;;;;;;3.13;0.68;;;;;;;19.82;39.43;98539.88;6240845;23;20044;-62
2021/09/01 02:42:03;;;;;;;0.38;0.38;;;;;;;24.07;36.50;98540.38;6246379;23;20489;-62
2021/09/01 02:45:09;;;;;;;0.13;0.13;;;;;;;24.65;36.38;98543.78;6245027;23;20020;-62
2021/09/01 02:48:15;;;;;;;0.30;0.30;;;;;;;25.68;35.44;98548.41;6244572;23;20061;-62
2021/09/01 02:51:21;;;;;;;0.20;0.20;;;;;;;27.11;34.04;98546.34;6244646;23;20034;-63
2021/09/01 02:54:26;;;;;;;0.45;0.35;;;;;;;27.85;33.73;98554.72;6243682;23;20019;-62
2021/09/01 02:57:31;;;;;;;0.30;0.25;;;;;;;28.03;33.93;98543.19;6242247;23;20074;-62
2021/09/01 03:00:37;;;;;;;0.20;0.20;;;;;;;29.09;33.25;98537.19;6216496;23;20023;-62
2021/09/01 03:03:42;;;;;;;0.47;0.13;;;;;;;29.67;32.63;98528.91;6243330;23;20012;-60
2021/09/01 03:06:48;;;;;;;0.57;0.52;;;;;;;30.01;32.68;98537.75;6244773;23;20153;-62
2021/09/01 03:09:53;;;;;;;0.17;0.17;;;;;;;29.93;33.12;98535.16;6244371;23;20035;-62
2021/09/01 03:12:59;;;;;;;0.85;0.85;;;;;;;29.94;33.35;98531.94;6244766;23;20318;-62
2021/09/01 03:19:28;;;;;;;0.20;0.20;;;;;;;30.24;33.34;98525.66;6241839;23;20530;-62
2021/09/01 03:22:33;;;;;;;0.10;0.10;;;;;;;30.58;32.75;98523.16;6241019;23;20008;-62
2021/09/01 03:25:39;;;;;;;0.80;0.57;;;;;;;30.86;32.52;98519.16;6244517;23;20086;-62
2021/09/01 03:28:44;;;;;;;0.55;0.30;;;;;;;30.93;32.49;98510.78;6216793;23;20012;-62
2021/09/01 03:31:50;;;;;;;0.10;0.10;;;;;;;30.68;33.07;98507.53;6245622;23;20019;-62
2021/09/01 03:34:55;;;;;;;0.20;0.20;;;;;;;30.46;33.26;98512.78;6245383;23;20023;-63
2021/09/01 03:38:00;;;;;;;0.25;0.25;;;;;;;30.66;32.87;98512.75;6218473;23;20019;-61
2021/09/01 03:41:06;;;;;;;0.10;0.10;;;;;;;30.34;33.33;98515.75;6218688;23;20464;-62
2021/09/01 03:44:11;;;;;;;0.20;0.20;;;;;;;29.68;34.50;98509.91;6244497;23;20012;-64
2021/09/01 03:47:17;;;;;;;0.45;0.45;;;;;;;29.88;33.95;98505.94;6215846;23;20015;-61
2021/09/01 03:57:09;;;;;;;0.20;0.20;;;;;;;29.83;33.58;98502.59;6239611;23;20360;-62
2021/09/01 04:00:14;;;;;;;0.10;0.10;;;;;;;30.33;32.71;98517.78;6239145;23;20394;-61
2021/09/01 04:03:19;;;;;;;0.20;0.20;;;;;;;31.05;31.76;98515.47;6243974;23;20494;-63
2021/09/01 04:06:25;;;;;;;0.20;0.20;;;;;;;31.18;31.63;98516.09;6217895;23;20016;-62
2021/09/01 04:09:30;;;;;;;0.30;0.30;;;;;;;31.04;31.92;98502.50;6245160;23;20008;-63
2021/09/01 04:12:36;;;;;;;0.25;0.25;;;;;;;31.39;31.19;98507.94;6244956;23;20016;-63
2021/09/01 04:15:41;;;;;;;0.30;0.28;;;;;;;31.56;31.18;98502.91;6217336;23;20012;-62
2021/09/01 04:18:47;;;;;;;0.20;0.17;;;;;;;32.22;30.00;98508.28;6244966;23;20066;-62
2021/09/01 04:28:39;;;;;;;0.77;0.68;;;;;;;25.60;39.25;98512.72;6242580;23;20037;-62
2021/09/01 04:31:44;;;;;;;2.13;0.85;;;;;;;22.54;43.63;98509.06;6244957;23;20400;-62
2021/09/01 04:48:21;;;;;;;0.40;0.40;;;;;;;16.94;47.21;98513.72;6243366;23;20039;-63
2021/09/01 04:51:26;;;;;;;0.73;0.73;;;;;;;16.42;46.96;98499.19;6244865;23;20087;-65
2021/09/01 04:54:32;;;;;;;1.35;0.77;;;;;;;16.13;46.83;98489.84;6244987;23;20035;-63
2021/09/01 04:57:37;;;;;;;0.70;0.45;;;;;;;15.96;45.99;98493.75;6217743;23;20062;-62
2021/09/01 05:00:43;;;;;;;0.50;0.50;;;;;;;15.76;45.53;98491.78;6244408;23;20016;-67
2021/09/01 05:03:48;;;;;;;1.80;0.57;;;;;;;15.51;45.17;98500.91;6244885;23;20012;-65
2021/09/01 15:32:24;;;;;;;0.80;0.80;;;;;;;11.99;51.72;98091.00;6239233;22;20026;-60
2021/09/01 15:34:52;;;;;;;0.75;0.63;;;;;;;11.95;51.97;98097.31;6216440;23;20020;-60
2021/09/01 15:37:20;;;;;;;3.10;0.88;;;;;;;11.90;51.84;98098.06;6215653;23;20026;-62
2021/09/01 15:39:50;;;;;;;1.42;1.33;;;;;;;11.86;52.44;98091.41;6242334;23;20020;-62
2021/09/01 15:42:20;;;;;;;0.93;0.80;;;;;;;11.80;52.41;98085.03;6215926;23;20019;-62
2021/09/01 15:44:56;;;;;;;1.73;1.15;;;;;;;11.76;52.67;98086.63;6215698;23;20078;-62
2021/09/01 15:47:27;;;;;;;1.25;0.95;;;;;;;11.71;52.49;98081.94;6243626;23;20471;-62
2021/09/01 15:49:57;;;;;;;1.65;1.55;;;;;;;11.68;52.88;98081.63;6216173;23;20012;-61
2021/09/01 15:52:24;;;;;;;1.75;1.42;;;;;;;11.61;53.22;98076.31;6214891;23;20035;-62
2021/09/01 15:54:52;;;;;;;1.00;1.00;;;;;;;11.57;53.03;98080.69;6215031;23;20016;-60
2021/09/01 15:57:21;;;;;;;4.53;1.73;;;;;;;11.54;53.38;98075.69;6241208;23;20023;-62
2021/09/01 15:59:50;;;;;;;1.02;0.85;;;;;;;11.50;53.47;98080.91;6216148;23;20016;-61
2021/09/01 16:02:19;;;;;;;1.30;1.02;;;;;;;11.48;53.34;98074.81;6216816;23;20456;-64
2021/09/01 16:04:50;;;;;;;2.75;1.75;;;;;;;11.46;53.90;98073.44;6216776;23;20380;-63
2021/09/01 16:07:17;;;;;;;1.15;1.08;;;;;;;11.44;53.58;98070.94;6216697;23;20078;-61
2021/09/01 16:09:44;;;;;;;8.93;1.25;;;;;;;11.43;53.75;98062.97;6216900;23;20012;-63
2021/09/01 16:12:15;;;;;;;0.82;0.82;;;;;;;11.40;53.92;98053.31;6216112;23;20023;-61
2021/09/01 16:14:46;;;;;;;1.92;1.38;;;;;;;11.38;53.71;98055.47;6216851;23;20067;-60
2021/09/01 16:17:41;;;;;;;0.77;0.77;;;;;;;11.36;53.94;98044.72;6216106;23;20016;-61
2021/09/01 16:20:14;;;;;;;0.90;0.80;;;;;;;11.33;53.91;98047.19;6215989;23;20356;-62
2021/09/01 16:22:47;;;;;;;4.30;1.98;;;;;;;11.32;54.16;98046.34;6216818;23;20712;-62
2021/09/01 16:25:53;;;;;;;0.52;0.52;;;;;;;11.31;54.10;98046.63;6215809;23;20011;-62
2021/09/01 16:28:38;;;;;;;;;;;;;;;11.28;53.94;98049.84;6243201;23;20016;-61
2021/09/01 16:35:11;;;;;;;2.13;0.98;;;;;;;11.18;54.29;98042.34;6206930;23;20122;-61
2021/09/01 16:38:26;;;;;;;1.30;1.17;;;;;;;11.13;54.45;98034.88;6242062;23;20024;-63
2021/09/01 16:40:57;;;;;;;0.60;0.60;;;;;;;11.10;54.55;98043.66;6243644;23;20012;-60
2021/09/01 16:43:24;;;;;;;0.55;0.55;;;;;;;11.08;54.63;98039.50;6243567;23;20023;-62
2021/09/01 16:45:51;;;;;;;1.13;0.93;;;;;;;11.07;54.71;98041.41;6243706;23;20023;-63
2021/09/01 16:48:17;;;;;;;1.75;1.35;;;;;;;11.07;54.70;98044.16;6243479;23;20074;-62
2021/09/01 16:50:54;;;;;;;1.92;1.52;;;;;;;11.08;54.97;98045.81;6243516;23;20012;-61
2021/09/01 16:53:43;;;;;;;1.67;0.98;;;;;;;11.07;54.97;98044.16;6243433;23;20008;-64
2021/09/01 16:56:15;;;;;;;0.47;0.47;;;;;;;11.07;54.97;98035.91;6243798;23;20018;-61
2021/09/01 16:58:51;;;;;;;0.40;0.40;;;;;;;11.07;54.98;98032.31;6243998;23;20016;-62
2021/09/01 17:01:21;;;;;;;0.93;0.80;;;;;;;11.05;55.01;98032.59;6244624;23;20008;-65
2021/09/01 17:04:00;;;;;;;0.98;0.98;;;;;;;11.01;55.39;98028.69;6244649;23;20015;-64
2021/09/01 17:06:34;;;;;;;3.20;2.08;;;;;;;10.98;55.38;98031.94;6244630;23;20016;-61
2021/09/01 17:09:02;;;;;;;0.93;0.73;;;;;;;10.96;55.47;98034.13;6244807;23;20404;-61
2021/09/01 17:11:29;;;;;;;1.65;0.73;;;;;;;10.94;55.47;98033.53;6244269;23;20087;-64
2021/09/01 17:13:55;;;;;;;0.70;0.70;;;;;;;10.92;55.64;98032.97;6244502;23;20091;-62
2021/09/01 17:16:22;;;;;;;1.48;0.77;;;;;;;10.88;55.68;98024.44;6244469;23;20384;-64
2021/09/01 17:18:49;;;;;;;1.05;0.63;;;;;;;10.83;55.81;98014.19;6244268;23;20011;-63
2021/09/01 17:21:21;;;;;;;0.73;0.73;;;;;;;10.81;56.00;98013.63;6243661;23;20012;-63
2021/09/01 17:23:47;;;;;;;1.50;1.08;;;;;;;10.79;56.25;98014.97;6244217;23;20012;-64
2021/09/01 17:26:16;;;;;;;1.05;1.05;;;;;;;10.76;56.37;98015.47;6244519;23;20464;-64
2021/09/01 17:29:02;;;;;;;3.63;1.50;;;;;;;10.75;56.33;98005.56;6243591;23;20012;-66
2021/09/01 17:31:38;;;;;;;5.82;1.98;;;;;;;10.71;56.47;98004.44;6244620;23;20008;-64
2021/09/01 17:34:06;;;;;;;3.65;0.90;;;;;;;10.68;56.42;98005.78;6244225;23;20377;-63
2021/09/01 17:36:34;;;;;;;1.42;0.63;;;;;;;10.66;56.65;97999.72;6244413;23;20024;-63
2021/09/01 17:39:03;;;;;;;2.45;2.13;;;;;;;10.64;56.48;97996.38;6244175;23;20070;-62
2021/09/01 17:41:30;;;;;;;2.03;0.82;;;;;;;10.63;56.93;97991.97;6244518;23;20039;-63
2021/09/01 17:43:57;;;;;;;2.10;1.33;;;;;;;10.61;56.82;97991.41;6244459;23;20012;-63
2021/09/01 17:46:23;;;;;;;1.55;0.98;;;;;;;10.61;56.74;97991.41;6217422;23;20383;-62
2021/09/01 17:48:51;;;;;;;1.67;1.20;;;;;;;10.60;57.06;97974.13;6244461;23;20306;-63
2021/09/01 17:51:17;;;;;;;1.73;1.27;;;;;;;10.58;56.90;97984.50;6243996;23;20075;-65
2021/09/01 17:53:44;;;;;;;0.75;0.75;;;;;;;10.59;57.21;97979.88;6244409;23;20349;-62
2021/09/01 17:56:11;;;;;;;1.65;1.48;;;;;;;10.59;57.25;97977.94;6244375;23;20008;-62
2021/09/01 17:58:38;;;;;;;0.55;0.55;;;;;;;10.59;57.33;97974.38;6243718;23;20016;-65
2021/09/01 18:01:06;;;;;;;2.42;1.60;;;;;;;10.58;57.25;97972.72;6244442;23;20337;-62
2021/09/01 18:03:33;;;;;;;0.63;0.63;;;;;;;10.58;57.36;97969.97;6244499;23;20368;-62
2021/09/01 18:05:59;;;;;;;1.95;1.30;;;;;;;10.57;57.38;97965.53;6244478;23;20012;-62
2021/09/01 18:08:25;;;;;;;1.40;1.15;;;;;;;10.57;57.45;97965.53;6244286;23;20015;-62
2021/09/01 18:10:51;;;;;;;2.28;1.75;;;;;;;10.56;57.47;97969.41;6244292;23;20085;-64
2021/09/01 18:13:17;;;;;;;1.17;0.75;;;;;;;10.55;57.65;97965.81;6244465;23;20008;-64
2021/09/01 18:15:43;;;;;;;1.38;1.33;;;;;;;10.55;57.63;97959.50;6244787;23;20008;-64
2021/09/01 18:18:10;;;;;;;1.00;0.60;;;;;;;10.54;57.69;97947.69;6244254;23;20099;-63
2021/09/01 18:20:37;;;;;;;3.03;1.17;;;;;;;10.49;57.83;97950.38;6244603;23;20453;-65
2021/09/01 18:23:04;;;;;;;3.10;0.52;;;;;;;10.50;57.78;97952.84;6244729;23;20349;-63
2021/09/01 18:25:30;;;;;;;0.57;0.52;;;;;;;10.51;57.93;97956.41;6192599;23;20018;-64
2021/09/01 18:27:56;;;;;;;4.00;1.10;;;;;;;10.51;57.80;97950.94;6244411;23;20091;-63
2021/09/01 18:30:23;;;;;;;1.85;1.15;;;;;;;10.50;58.16;97936.38;6243834;23;20016;-62
2021/09/01 18:32:51;;;;;;;1.85;1.27;;;;;;;10.49;58.04;97929.22;6244569;23;20008;-62
2021/09/01 18:35:17;;;;;;;4.40;1.05;;;;;;;10.50;58.29;97930.91;6217970;23;20357;-61
2021/09/01 18:37:44;;;;;;;1.02;1.02;;;;;;;10.49;58.19;97929.22;6246524;23;20015;-66
2021/09/01 18:40:10;;;;;;;1.50;1.10;;;;;;;10.49;58.35;97926.47;6246233;23;20372;-63
2021/09/01 18:42:38;;;;;;;0.98;0.88;;;;;;;10.49;58.47;97929.22;6246221;23;20091;-65
2021/09/01 18:45:04;;;;;;;1.13;0.90;;;;;;;10.48;58.40;97924.84;6246176;23;20012;-63
2021/09/01 18:47:32;;;;;;;1.63;1.40;;;;;;;10.48;58.47;97930.34;6246016;23;20008;-64
2021/09/01 18:49:58;;;;;;;1.38;0.65;;;;;;;10.48;58.42;97915.75;6246143;23;20100;-65
2021/09/01 18:52:27;;;;;;;1.80;1.48;;;;;;;10.47;58.39;97912.19;6244797;23;20012;-64
2021/09/01 18:54:56;;;;;;;0.85;0.85;;;;;;;10.47;58.54;97901.22;6245168;23;20464;-64
2021/09/01 18:57:22;;;;;;;1.00;0.82;;;;;;;10.46;58.42;97899.56;6245465;23;20073;-66
2021/09/01 18:59:49;;;;;;;1.35;0.98;;;;;;;10.46;58.84;97893.25;6218329;23;20020;-65
2021/09/01 19:02:22;;;;;;;1.55;1.20;;;;;;;10.45;59.01;97891.56;6219113;23;20012;-63
2021/09/01 19:04:52;;;;;;;7.95;1.65;;;;;;;10.45;58.88;97888.84;6220185;23;20016;-64
2021/09/01 19:07:30;;;;;;;2.78;0.90;;;;;;;10.43;59.00;97886.34;6245867;23;20022;-65
2021/09/01 19:10:02;;;;;;;1.00;1.00;;;;;;;10.43;59.09;97883.59;6245738;23;20015;-63
2021/09/01 19:12:29;;;;;;;1.42;1.08;;;;;;;10.42;58.92;97873.69;6219205;23;20019;-63
2021/09/01 19:14:58;;;;;;;1.10;0.98;;;;;;;10.38;59.10;97869.84;6245775;23;20008;-61
2021/09/01 19:17:25;;;;;;;0.88;0.57;;;;;;;10.37;59.27;97861.88;6245626;23;20330;-62
2021/09/01 19:19:52;;;;;;;0.60;0.52;;;;;;;10.34;59.22;97857.72;6245915;23;20012;-62
2021/09/01 19:22:27;;;;;;;2.10;1.65;;;;;;;10.32;59.30;97857.94;6245652;23;20463;-63
2021/09/01 19:24:53;;;;;;;3.72;1.38;;;;;;;10.32;59.46;97857.09;6218843;23;20012;-64
2021/09/01 19:27:24;;;;;;;1.45;1.38;;;;;;;10.31;59.42;97849.97;6245600;23;20012;-66
2021/09/01 19:29:55;;;;;;;1.05;0.82;;;;;;;10.30;59.51;97843.63;6245397;23;20008;-64
2021/09/01 19:32:23;;;;;;;1.00;0.90;;;;;;;10.29;59.67;97846.63;6245477;23;20016;-64
2021/09/01 19:34:50;;;;;;;1.35;0.90;;;;;;;10.29;59.52;97846.63;6245618;23;20020;-65
2021/09/01 19:37:17;;;;;;;1.23;1.13;;;;;;;10.27;59.73;97848.81;6245523;23;20437;-62
2021/09/01 19:39:44;;;;;;;0.50;0.50;;;;;;;10.22;59.71;97846.84;6245522;23;20356;-63
2021/09/01 19:42:11;;;;;;;0.85;0.85;;;;;;;10.22;59.95;97846.84;6245588;23;20012;-63
2021/09/01 19:44:38;;;;;;;1.92;1.33;;;;;;;10.21;59.90;97845.19;6245676;23;20008;-63
2021/09/01 19:47:10;;;;;;;1.00;0.85;;;;;;;10.21;59.92;97841.63;6245311;23;20073;-66
2021/09/01 19:49:36;;;;;;;1.23;0.70;;;;;;;10.22;60.09;97840.50;6245463;23;20012;-65
2021/09/01 19:52:04;;;;;;;1.40;1.30;;;;;;;10.23;60.13;97836.69;6245561;23;20038;-66
2021/09/01 19:54:31;;;;;;;1.15;1.02;;;;;;;10.27;60.06;97832.34;6245607;23;20047;-65
2021/09/01 19:56:59;;;;;;;1.52;1.42;;;;;;;10.29;59.97;97838.41;6245802;23;20011;-65
2021/09/01 19:59:25;;;;;;;0.68;0.68;;;;;;;10.32;60.01;97825.00;6245050;23;20012;-66
2021/09/01 20:01:52;;;;;;;0.80;0.80;;;;;;;10.32;60.02;97825.00;6245677;23;20043;-64
2021/09/01 20:04:20;;;;;;;1.50;0.82;;;;;;;10.33;59.94;97820.34;6218716;23;20042;-66
2021/09/01 20:06:50;;;;;;;1.08;0.85;;;;;;;10.30;60.07;97821.69;6245422;23;20030;-66
2021/09/01 20:09:16;;;;;;;0.65;0.65;;;;;;;10.29;60.10;97831.00;6245465;23;20015;-65
2021/09/01 20:11:42;;;;;;;1.88;0.88;;;;;;;10.26;60.21;97819.72;6245362;23;20348;-67
2021/09/01 20:14:09;;;;;;;3.08;1.02;;;;;;;10.22;60.30;97813.06;6245456;23;20012;-65
2021/09/01 20:16:40;;;;;;;1.52;1.02;;;;;;;10.17;60.73;97809.22;6245352;23;20330;-65
2021/09/01 20:19:08;;;;;;;0.52;0.52;;;;;;;10.15;60.55;97807.81;6245414;23;20455;-65
2021/09/01 20:21:35;;;;;;;1.92;0.80;;;;;;;10.12;60.68;97800.91;6245261;23;20036;-64
2021/09/01 20:24:03;;;;;;;4.72;1.63;;;;;;;10.09;60.81;97806.09;6245391;23;20074;-67
2021/09/01 20:26:31;;;;;;;2.53;0.93;;;;;;;10.06;60.86;97792.91;6245225;23;20334;-65
2021/09/01 20:28:57;;;;;;;1.55;1.45;;;;;;;10.03;60.95;97796.97;6244661;23;20091;-65
2021/09/01 20:31:23;;;;;;;1.75;1.30;;;;;;;10.02;61.14;97784.34;6245122;23;20127;-63
2021/09/01 20:33:49;;;;;;;1.35;1.08;;;;;;;10.02;60.92;97784.34;6245064;23;20468;-68
2021/09/01 20:36:20;;;;;;;0.75;0.57;;;;;;;10.02;61.23;97778.03;6244614;23;20020;-63
2021/09/01 20:38:48;;;;;;;2.00;1.20;;;;;;;10.00;61.22;97768.13;6245173;23;20329;-65
2021/09/01 20:41:20;;;;;;;1.17;1.08;;;;;;;10.01;61.11;97768.94;6244845;23;20012;-63
2021/09/01 20:44:13;;;;;;;0.70;0.70;;;;;;;10.02;61.03;97769.81;6217980;23;20014;-65
2021/09/01 20:46:41;;;;;;;1.35;1.23;;;;;;;10.02;61.12;97756.91;6244443;23;20016;-65
2021/09/01 20:49:14;;;;;;;0.43;0.43;;;;;;;10.04;61.06;97762.13;6245030;23;20016;-64
2021/09/01 20:51:41;;;;;;;2.00;1.50;;;;;;;10.03;61.20;97761.31;6245208;23;20012;-63
2021/09/01 20:54:08;;;;;;;1.20;0.65;;;;;;;10.04;60.96;97740.19;6245160;23;20094;-64
2021/09/01 20:56:36;;;;;;;1.65;1.35;;;;;;;10.06;61.20;97722.41;6244989;23;20387;-63
2021/09/01 20:59:03;;;;;;;0.57;0.57;;;;;;;10.06;60.94;97727.88;6244340;23;20022;-63
2021/09/01 21:01:30;;;;;;;0.55;0.55;;;;;;;10.06;61.10;97733.38;6244300;23;20090;-64
2021/09/01 21:03:57;;;;;;;0.73;0.57;;;;;;;10.04;61.39;97734.72;6245052;23;20033;-63
2021/09/01 21:06:26;;;;;;;1.65;1.45;;;;;;;10.00;61.30;97724.25;6244879;23;20004;-64
2021/09/01 21:08:54;;;;;;;1.38;1.27;;;;;;;9.97;61.42;97715.72;6244840;23;20012;-63
2021/09/01 21:11:21;;;;;;;3.97;1.30;;;;;;;9.95;61.38;97715.16;6244989;23;20015;-65
2021/09/01 21:13:48;;;;;;;2.40;1.52;;;;;;;9.93;61.59;97718.16;6244871;23;20043;-61
2021/09/01 21:16:16;;;;;;;0.85;0.85;;;;;;;9.91;61.53;97714.84;6244763;23;20008;-61
2021/09/01 21:18:56;;;;;;;1.20;1.10;;;;;;;9.91;61.59;97725.81;6244709;23;20019;-62
2021/09/01 21:21:23;;;;;;;0.98;0.68;;;;;;;9.92;61.72;97710.19;6244804;23;20043;-61
2021/09/01 21:23:52;;;;;;;1.02;0.98;;;;;;;9.91;61.58;97709.38;6244628;23;20069;-61
2021/09/01 21:26:20;;;;;;;2.35;1.17;;;;;;;9.88;61.74;97692.56;6244638;23;20066;-63
2021/09/01 21:28:50;;;;;;;0.50;0.50;;;;;;;9.82;61.94;97692.53;6244160;23;20008;-62
2021/09/01 21:31:18;;;;;;;0.68;0.68;;;;;;;9.77;62.14;97691.66;6244674;23;20016;-62
2021/09/01 21:33:46;;;;;;;1.02;0.93;;;;;;;9.74;62.30;97693.00;6244535;23;20015;-62
2021/09/01 21:36:12;;;;;;;2.65;1.45;;;;;;;9.71;62.22;97689.94;6244692;23;20504;-62
2021/09/01 21:38:39;;;;;;;0.80;0.80;;;;;;;9.68;62.53;97688.53;6244604;23;20433;-61
2021/09/01 21:41:06;;;;;;;2.22;1.13;;;;;;;9.65;62.50;97678.09;6244591;23;20110;-62
2021/09/01 21:43:35;;;;;;;2.00;0.93;;;;;;;9.64;62.61;97676.44;6244505;23;20456;-64
2021/09/01 21:46:03;;;;;;;1.25;1.15;;;;;;;9.61;62.46;97674.19;6244542;23;20012;-62
2021/09/01 21:48:28;;;;;;;0.40;0.40;;;;;;;9.59;62.54;97674.47;6244539;23;20019;-63
2021/09/01 21:50:54;;;;;;;1.58;1.05;;;;;;;9.57;62.71;97676.63;6244806;23;20071;-63
2021/09/01 21:53:20;;;;;;;0.73;0.73;;;;;;;9.57;62.49;97675.78;6244682;23;20018;-63
2021/09/01 21:55:46;;;;;;;1.35;1.25;;;;;;;9.56;62.60;97674.97;6244556;23;20091;-62
2021/09/01 21:58:12;;;;;;;2.08;0.88;;;;;;;9.55;62.53;97661.53;6217496;23;20087;-64
2021/09/01 22:00:38;;;;;;;1.08;0.93;;;;;;;9.53;62.79;97659.03;6244520;23;20008;-62
2021/09/01 22:03:04;;;;;;;1.25;0.60;;;;;;;9.53;62.88;97655.50;6244782;23;20416;-63
2021/09/01 22:05:30;;;;;;;2.35;1.42;;;;;;;9.52;62.84;97659.31;6244547;23;20008;-62
2021/09/01 22:07:56;;;;;;;0.80;0.80;;;;;;;9.53;62.91;97652.75;6244529;23;20012;-62
2021/09/01 22:10:22;;;;;;;0.88;0.88;;;;;;;9.52;62.73;97653.81;6246598;23;20071;-62
2021/09/01 22:12:48;;;;;;;1.42;1.10;;;;;;;9.51;62.87;97647.53;6246312;23;20012;-62
2021/09/01 22:15:14;;;;;;;0.60;0.60;;;;;;;9.50;63.06;97653.25;6246450;23;20083;-62
2021/09/01 22:17:40;;;;;;;0.85;0.82;;;;;;;9.50;62.87;97648.59;6246496;23;20008;-62
2021/09/01 22:20:08;;;;;;;2.10;1.38;;;;;;;9.49;63.04;97637.91;6246459;23;20015;-62
2021/09/01 22:22:34;;;;;;;0.68;0.68;;;;;;;9.49;63.09;97637.91;6246437;23;20008;-62
2021/09/01 22:25:00;;;;;;;2.28;1.13;;;;;;;9.45;63.22;97632.94;6219279;23;20348;-63
2021/09/01 22:27:26;;;;;;;0.93;0.82;;;;;;;9.46;63.17;97642.78;6246311;23;20019;-63
2021/09/01 22:29:51;;;;;;;2.50;1.30;;;;;;;9.47;63.12;97646.38;6245790;23;20016;-62
2021/09/01 22:32:18;;;;;;;1.27;0.38;;;;;;;9.46;63.28;97631.84;6246794;23;20023;-63
2021/09/01 22:34:43;;;;;;;1.13;0.90;;;;;;;9.46;63.20;97628.28;6246205;23;20012;-63
2021/09/01 22:37:09;;;;;;;3.30;0.57;;;;;;;9.45;63.48;97630.19;6246165;23;20058;-63
2021/09/01 22:39:35;;;;;;;3.45;1.10;;;;;;;9.46;63.24;97622.78;6246088;23;20052;-63
2021/09/01 22:42:01;;;;;;;1.88;0.70;;;;;;;9.46;63.43;97625.53;6246366;23;20008;-63
2021/09/01 22:44:26;;;;;;;1.30;1.20;;;;;;;9.46;63.35;97614.56;6246278;23;20019;-62
2021/09/01 22:46:52;;;;;;;1.30;1.08;;;;;;;9.46;63.37;97609.09;6246214;23;20000;-62
2021/09/01 22:49:18;;;;;;;1.05;1.05;;;;;;;9.46;63.58;97601.69;6246252;23;20098;-63
2021/09/01 22:51:48;;;;;;;0.98;0.68;;;;;;;9.47;63.39;97602.53;6246269;23;20015;-63
2021/09/01 22:54:16;;;;;;;0.80;0.80;;;;;;;9.49;63.51;97594.06;6245980;23;20012;-63
2021/09/01 22:56:43;;;;;;;1.27;1.17;;;;;;;9.49;63.52;97597.63;6246069;23;20062;-64
2021/09/01 22:59:09;;;;;;;0.50;0.50;;;;;;;9.48;63.51;97587.72;6245865;23;20066;-63
2021/09/01 23:01:35;;;;;;;0.32;0.30;;;;;;;9.49;63.46;97594.88;6245936;23;20058;-63
2021/09/01 23:04:01;;;;;;;0.93;0.93;;;;;;;9.50;63.71;97601.19;6245726;23;20020;-62
2021/09/01 23:06:26;;;;;;;0.70;0.65;;;;;;;9.51;63.57;97592.72;6246205;23;20083;-63
2021/09/01 23:08:52;;;;;;;2.70;0.93;;;;;;;9.52;63.67;97590.81;6245903;23;20008;-64
2021/09/01 23:11:18;;;;;;;0.43;0.43;;;;;;;9.51;63.92;97589.97;6245973;23;20400;-63
2021/09/01 23:13:43;;;;;;;1.65;0.70;;;;;;;9.49;63.71;97583.91;6246058;23;20016;-63
2021/09/01 23:16:09;;;;;;;2.25;1.20;;;;;;;9.50;63.83;97582.84;6246184;23;20044;-64
2021/09/01 23:18:35;;;;;;;0.65;0.60;;;;;;;9.52;63.73;97577.09;6245974;23;20016;-63
2021/09/01 23:21:00;;;;;;;2.45;0.60;;;;;;;9.51;63.83;97568.06;6245510;23;20034;-63
2021/09/01 23:23:26;;;;;;;1.27;0.75;;;;;;;9.53;63.82;97571.34;6246243;23;20077;-63
2021/09/01 23:25:52;;;;;;;1.55;0.73;;;;;;;9.54;63.91;97562.06;6246054;23;20008;-63
2021/09/01 23:28:18;;;;;;;1.20;1.00;;;;;;;9.56;63.75;97564.53;6245302;23;20012;-64
2021/09/01 23:30:44;;;;;;;0.32;0.32;;;;;;;9.57;63.85;97553.31;6245633;23;20012;-64
2021/09/01 23:33:09;;;;;;;0.30;0.30;;;;;;;9.58;63.96;97545.91;6246205;23;20425;-63